sensor_id;sensor_type;location;lat;lon;timestamp;P1;durP1;ratioP1;P2;durP2;ratioP2
6941;SDS011;3510;43.200;27.920;2023-01-29T00:00:44;10.65;;;9.65;;
6941;SDS011;3510;43.200;27.920;2023-01-29T00:03:12;11.15;;;9.57;;
6941;SDS011;3510;43.200;27.920;2023-01-29T00:05:52;10.98;;;9.88;;
6941;SDS011;3510;43.200;27.920;2023-01-29T00:08:33;10.93;;;9.93;;
6941;SDS011;3510;43.200;27.920;2023-01-29T00:11:00;10.82;;;9.82;;
6941;SDS011;3510;43.200;27.920;2023-01-29T00:23:00;10.05;;;9.10;;
6941;SDS011;3510;43.200;27.920;2023-01-29T00:25:58;11.35;;;10.20;;
6941;SDS011;3510;43.200;27.920;2023-01-29T00:28:25;10.90;;;9.90;;
6941;SDS011;3510;43.200;27.920;2023-01-29T00:31:06;9.82;;;8.90;;
6941;SDS011;3510;43.200;27.920;2023-01-29T00:33:48;10.45;;;9.45;;
6941;SDS011;3510;43.200;27.920;2023-01-29T00:36:16;9.63;;;8.80;;
6941;SDS011;3510;43.200;27.920;2023-01-29T00:38:53;9.93;;;9.03;;
6941;SDS011;3510;43.200;27.920;2023-01-29T00:41:35;9.10;;;8.20;;
6941;SDS011;3510;43.200;27.920;2023-01-29T00:44:19;9.63;;;8.73;;
6941;SDS011;3510;43.200;27.920;2023-01-29T00:47:04;10.27;;;9.30;;
6941;SDS011;3510;43.200;27.920;2023-01-29T00:49:52;8.77;;;7.97;;
6941;SDS011;3510;43.200;27.920;2023-01-29T00:52:19;9.80;;;8.70;;
6941;SDS011;3510;43.200;27.920;2023-01-29T00:58:01;9.50;;;8.50;;
6941;SDS011;3510;43.200;27.920;2023-01-29T01:00:42;8.65;;;7.90;;
6941;SDS011;3510;43.200;27.920;2023-01-29T01:03:09;9.00;;;8.20;;
6941;SDS011;3510;43.200;27.920;2023-01-29T01:05:35;9.10;;;8.30;;
6941;SDS011;3510;43.200;27.920;2023-01-29T01:08:03;8.30;;;7.60;;
6941;SDS011;3510;43.200;27.920;2023-01-29T01:10:57;7.47;;;6.90;;
6941;SDS011;3510;43.200;27.920;2023-01-29T01:19:33;6.60;;;6.10;;
6941;SDS011;3510;43.200;27.920;2023-01-29T01:22:00;7.18;;;6.57;;
6941;SDS011;3510;43.200;27.920;2023-01-29T01:24:29;6.82;;;6.38;;
6941;SDS011;3510;43.200;27.920;2023-01-29T01:26:56;6.80;;;6.30;;
6941;SDS011;3510;43.200;27.920;2023-01-29T01:29:23;6.72;;;6.13;;
6941;SDS011;3510;43.200;27.920;2023-01-29T01:31:53;6.47;;;6.07;;
6941;SDS011;3510;43.200;27.920;2023-01-29T01:34:20;6.47;;;5.97;;
6941;SDS011;3510;43.200;27.920;2023-01-29T01:36:48;5.80;;;5.40;;
6941;SDS011;3510;43.200;27.920;2023-01-29T01:39:15;6.13;;;5.70;;
6941;SDS011;3510;43.200;27.920;2023-01-29T01:41:42;5.85;;;5.35;;
6941;SDS011;3510;43.200;27.920;2023-01-29T01:47:12;5.90;;;5.50;;
6941;SDS011;3510;43.200;27.920;2023-01-29T01:49:41;6.05;;;5.65;;
6941;SDS011;3510;43.200;27.920;2023-01-29T01:52:09;5.68;;;5.28;;
6941;SDS011;3510;43.200;27.920;2023-01-29T01:54:38;5.65;;;5.25;;
6941;SDS011;3510;43.200;27.920;2023-01-29T01:57:08;6.20;;;5.70;;
6941;SDS011;3510;43.200;27.920;2023-01-29T01:59:40;5.93;;;5.53;;
6941;SDS011;3510;43.200;27.920;2023-01-29T02:02:13;6.32;;;5.90;;
6941;SDS011;3510;43.200;27.920;2023-01-29T02:04:58;6.03;;;5.57;;
6941;SDS011;3510;43.200;27.920;2023-01-29T02:07:44;5.63;;;5.22;;
6941;SDS011;3510;43.200;27.920;2023-01-29T02:10:34;5.95;;;5.55;;
6941;SDS011;3510;43.200;27.920;2023-01-29T02:13:04;6.10;;;5.65;;
6941;SDS011;3510;43.200;27.920;2023-01-29T02:15:33;6.07;;;5.67;;
6941;SDS011;3510;43.200;27.920;2023-01-29T02:18:02;5.90;;;5.40;;
6941;SDS011;3510;43.200;27.920;2023-01-29T02:20:30;6.25;;;5.65;;
6941;SDS011;3510;43.200;27.920;2023-01-29T02:23:14;5.93;;;5.53;;
6941;SDS011;3510;43.200;27.920;2023-01-29T02:26:06;6.00;;;5.60;;
6941;SDS011;3510;43.200;27.920;2023-01-29T02:28:43;5.88;;;5.47;;
6941;SDS011;3510;43.200;27.920;2023-01-29T02:31:15;6.07;;;5.63;;
6941;SDS011;3510;43.200;27.920;2023-01-29T02:33:55;6.03;;;5.53;;
6941;SDS011;3510;43.200;27.920;2023-01-29T02:36:33;6.53;;;6.03;;
6941;SDS011;3510;43.200;27.920;2023-01-29T02:39:06;7.13;;;6.53;;
6941;SDS011;3510;43.200;27.920;2023-01-29T02:41:41;5.70;;;5.30;;
6941;SDS011;3510;43.200;27.920;2023-01-29T02:44:16;5.70;;;5.30;;
6941;SDS011;3510;43.200;27.920;2023-01-29T02:46:51;5.90;;;5.40;;
6941;SDS011;3510;43.200;27.920;2023-01-29T02:49:24;5.80;;;5.35;;
6941;SDS011;3510;43.200;27.920;2023-01-29T02:51:58;5.80;;;5.40;;
6941;SDS011;3510;43.200;27.920;2023-01-29T02:54:30;6.60;;;6.15;;
6941;SDS011;3510;43.200;27.920;2023-01-29T02:57:08;7.00;;;6.50;;
6941;SDS011;3510;43.200;27.920;2023-01-29T02:59:44;7.15;;;6.50;;
6941;SDS011;3510;43.200;27.920;2023-01-29T03:02:16;6.85;;;6.32;;
6941;SDS011;3510;43.200;27.920;2023-01-29T03:04:48;7.50;;;6.90;;
6941;SDS011;3510;43.200;27.920;2023-01-29T03:07:21;6.85;;;6.28;;
6941;SDS011;3510;43.200;27.920;2023-01-29T03:10:08;7.65;;;6.95;;
6941;SDS011;3510;43.200;27.920;2023-01-29T03:12:39;7.73;;;7.07;;
6941;SDS011;3510;43.200;27.920;2023-01-29T03:15:11;8.13;;;7.50;;
6941;SDS011;3510;43.200;27.920;2023-01-29T03:17:44;7.15;;;6.55;;
6941;SDS011;3510;43.200;27.920;2023-01-29T03:20:17;7.23;;;6.63;;
6941;SDS011;3510;43.200;27.920;2023-01-29T03:22:50;7.30;;;6.63;;
6941;SDS011;3510;43.200;27.920;2023-01-29T03:25:22;7.33;;;6.63;;
6941;SDS011;3510;43.200;27.920;2023-01-29T03:28:08;7.40;;;6.70;;
6941;SDS011;3510;43.200;27.920;2023-01-29T03:30:59;7.72;;;7.13;;
6941;SDS011;3510;43.200;27.920;2023-01-29T03:33:47;7.40;;;6.78;;
6941;SDS011;3510;43.200;27.920;2023-01-29T03:36:18;7.38;;;6.78;;
6941;SDS011;3510;43.200;27.920;2023-01-29T03:38:51;12.88;;;7.72;;
6941;SDS011;3510;43.200;27.920;2023-01-29T03:41:21;7.13;;;6.50;;
6941;SDS011;3510;43.200;27.920;2023-01-29T03:43:55;8.30;;;7.30;;
6941;SDS011;3510;43.200;27.920;2023-01-29T03:46:34;8.57;;;7.72;;
6941;SDS011;3510;43.200;27.920;2023-01-29T03:49:06;7.88;;;7.07;;
6941;SDS011;3510;43.200;27.920;2023-01-29T03:51:40;7.75;;;7.15;;
6941;SDS011;3510;43.200;27.920;2023-01-29T03:54:28;7.93;;;7.18;;
6941;SDS011;3510;43.200;27.920;2023-01-29T03:57:06;8.52;;;7.72;;
6941;SDS011;3510;43.200;27.920;2023-01-29T03:59:42;8.45;;;7.65;;
6941;SDS011;3510;43.200;27.920;2023-01-29T04:02:17;8.35;;;7.57;;
6941;SDS011;3510;43.200;27.920;2023-01-29T04:04:52;8.90;;;8.00;;
6941;SDS011;3510;43.200;27.920;2023-01-29T04:07:22;9.23;;;8.20;;
6941;SDS011;3510;43.200;27.920;2023-01-29T04:10:07;8.73;;;7.93;;
6941;SDS011;3510;43.200;27.920;2023-01-29T04:12:37;8.52;;;7.82;;
6941;SDS011;3510;43.200;27.920;2023-01-29T04:15:10;8.60;;;7.72;;
6941;SDS011;3510;43.200;27.920;2023-01-29T04:17:54;9.15;;;8.30;;
6941;SDS011;3510;43.200;27.920;2023-01-29T04:20:36;9.32;;;8.43;;
6941;SDS011;3510;43.200;27.920;2023-01-29T04:23:18;9.15;;;8.25;;
6941;SDS011;3510;43.200;27.920;2023-01-29T04:25:52;9.52;;;8.55;;
6941;SDS011;3510;43.200;27.920;2023-01-29T04:28:24;9.97;;;9.03;;
6941;SDS011;3510;43.200;27.920;2023-01-29T04:31:01;9.20;;;8.30;;
6941;SDS011;3510;43.200;27.920;2023-01-29T04:33:38;9.25;;;8.35;;
6941;SDS011;3510;43.200;27.920;2023-01-29T04:36:23;9.45;;;8.50;;
6941;SDS011;3510;43.200;27.920;2023-01-29T04:38:58;9.90;;;8.93;;
6941;SDS011;3510;43.200;27.920;2023-01-29T04:41:33;8.85;;;8.02;;
6941;SDS011;3510;43.200;27.920;2023-01-29T04:44:05;8.98;;;8.13;;
6941;SDS011;3510;43.200;27.920;2023-01-29T04:46:42;9.02;;;8.23;;
6941;SDS011;3510;43.200;27.920;2023-01-29T04:49:17;9.23;;;8.43;;
6941;SDS011;3510;43.200;27.920;2023-01-29T04:51:57;9.07;;;8.27;;
6941;SDS011;3510;43.200;27.920;2023-01-29T04:54:33;9.82;;;8.93;;
6941;SDS011;3510;43.200;27.920;2023-01-29T04:57:13;9.57;;;8.57;;
6941;SDS011;3510;43.200;27.920;2023-01-29T04:59:51;9.50;;;8.60;;
6941;SDS011;3510;43.200;27.920;2023-01-29T05:02:25;8.52;;;7.82;;
6941;SDS011;3510;43.200;27.920;2023-01-29T05:04:55;9.07;;;8.20;;
6941;SDS011;3510;43.200;27.920;2023-01-29T05:07:24;9.30;;;8.43;;
6941;SDS011;3510;43.200;27.920;2023-01-29T05:09:54;8.88;;;8.07;;
6941;SDS011;3510;43.200;27.920;2023-01-29T05:12:22;8.85;;;8.13;;
6941;SDS011;3510;43.200;27.920;2023-01-29T05:14:51;8.70;;;8.00;;
6941;SDS011;3510;43.200;27.920;2023-01-29T05:17:26;8.13;;;7.43;;
6941;SDS011;3510;43.200;27.920;2023-01-29T05:19:55;8.70;;;8.00;;
6941;SDS011;3510;43.200;27.920;2023-01-29T05:22:22;8.48;;;7.75;;
6941;SDS011;3510;43.200;27.920;2023-01-29T05:24:50;8.70;;;7.80;;
6941;SDS011;3510;43.200;27.920;2023-01-29T05:27:19;8.52;;;7.82;;
6941;SDS011;3510;43.200;27.920;2023-01-29T05:30:07;8.65;;;7.95;;
6941;SDS011;3510;43.200;27.920;2023-01-29T05:32:35;9.38;;;8.57;;
6941;SDS011;3510;43.200;27.920;2023-01-29T05:35:05;9.05;;;8.35;;
6941;SDS011;3510;43.200;27.920;2023-01-29T05:37:33;8.90;;;8.10;;
6941;SDS011;3510;43.200;27.920;2023-01-29T05:40:00;8.43;;;7.80;;
6941;SDS011;3510;43.200;27.920;2023-01-29T05:42:27;7.95;;;7.35;;
6941;SDS011;3510;43.200;27.920;2023-01-29T05:45:40;7.47;;;6.93;;
6941;SDS011;3510;43.200;27.920;2023-01-29T05:48:13;8.10;;;7.40;;
6941;SDS011;3510;43.200;27.920;2023-01-29T05:50:40;8.68;;;7.97;;
6941;SDS011;3510;43.200;27.920;2023-01-29T05:53:07;8.23;;;7.60;;
6941;SDS011;3510;43.200;27.920;2023-01-29T05:55:35;8.55;;;7.85;;
6941;SDS011;3510;43.200;27.920;2023-01-29T05:58:02;8.52;;;7.82;;
6941;SDS011;3510;43.200;27.920;2023-01-29T06:00:44;9.98;;;9.07;;
6941;SDS011;3510;43.200;27.920;2023-01-29T06:03:25;8.43;;;7.72;;
6941;SDS011;3510;43.200;27.920;2023-01-29T06:05:52;8.40;;;7.70;;
6941;SDS011;3510;43.200;27.920;2023-01-29T06:08:19;13.00;;;11.82;;
6941;SDS011;3510;43.200;27.920;2023-01-29T06:10:46;9.35;;;8.45;;
6941;SDS011;3510;43.200;27.920;2023-01-29T06:13:13;8.45;;;7.65;;
6941;SDS011;3510;43.200;27.920;2023-01-29T06:15:40;7.60;;;7.00;;
6941;SDS011;3510;43.200;27.920;2023-01-29T06:18:09;7.60;;;6.95;;
6941;SDS011;3510;43.200;27.920;2023-01-29T06:20:49;7.45;;;6.80;;
6941;SDS011;3510;43.200;27.920;2023-01-29T06:23:17;7.80;;;7.10;;
6941;SDS011;3510;43.200;27.920;2023-01-29T06:25:44;7.47;;;6.88;;
6941;SDS011;3510;43.200;27.920;2023-01-29T06:28:11;7.70;;;7.00;;
6941;SDS011;3510;43.200;27.920;2023-01-29T06:30:38;7.10;;;6.40;;
6941;SDS011;3510;43.200;27.920;2023-01-29T06:33:05;7.45;;;6.80;;
6941;SDS011;3510;43.200;27.920;2023-01-29T06:35:34;7.30;;;6.70;;
6941;SDS011;3510;43.200;27.920;2023-01-29T06:38:02;8.23;;;7.53;;
6941;SDS011;3510;43.200;27.920;2023-01-29T06:40:30;7.88;;;7.13;;
6941;SDS011;3510;43.200;27.920;2023-01-29T06:42:58;7.40;;;6.80;;
6941;SDS011;3510;43.200;27.920;2023-01-29T06:45:26;8.50;;;7.70;;
6941;SDS011;3510;43.200;27.920;2023-01-29T06:47:53;8.20;;;7.40;;
6941;SDS011;3510;43.200;27.920;2023-01-29T06:50:21;8.23;;;7.53;;
6941;SDS011;3510;43.200;27.920;2023-01-29T06:52:50;8.63;;;7.93;;
6941;SDS011;3510;43.200;27.920;2023-01-29T06:55:17;8.13;;;7.32;;
6941;SDS011;3510;43.200;27.920;2023-01-29T06:57:44;7.97;;;7.28;;
6941;SDS011;3510;43.200;27.920;2023-01-29T07:00:12;8.90;;;8.00;;
6941;SDS011;3510;43.200;27.920;2023-01-29T07:02:42;9.07;;;7.88;;
6941;SDS011;3510;43.200;27.920;2023-01-29T07:05:09;8.63;;;7.93;;
6941;SDS011;3510;43.200;27.920;2023-01-29T07:07:36;9.07;;;8.18;;
6941;SDS011;3510;43.200;27.920;2023-01-29T07:10:05;9.93;;;8.30;;
6941;SDS011;3510;43.200;27.920;2023-01-29T07:12:33;8.32;;;7.63;;
6941;SDS011;3510;43.200;27.920;2023-01-29T07:15:00;9.65;;;8.75;;
6941;SDS011;3510;43.200;27.920;2023-01-29T07:17:27;8.50;;;7.70;;
6941;SDS011;3510;43.200;27.920;2023-01-29T07:19:54;9.97;;;8.97;;
6941;SDS011;3510;43.200;27.920;2023-01-29T07:22:21;12.50;;;11.20;;
6941;SDS011;3510;43.200;27.920;2023-01-29T07:24:50;9.57;;;8.60;;
6941;SDS011;3510;43.200;27.920;2023-01-29T07:27:19;9.40;;;8.60;;
6941;SDS011;3510;43.200;27.920;2023-01-29T07:29:46;7.28;;;6.68;;
6941;SDS011;3510;43.200;27.920;2023-01-29T07:32:14;7.70;;;7.00;;
6941;SDS011;3510;43.200;27.920;2023-01-29T07:34:41;7.88;;;7.18;;
6941;SDS011;3510;43.200;27.920;2023-01-29T07:37:08;8.27;;;7.57;;
6941;SDS011;3510;43.200;27.920;2023-01-29T07:39:35;7.88;;;7.18;;
6941;SDS011;3510;43.200;27.920;2023-01-29T07:42:02;9.25;;;8.35;;
6941;SDS011;3510;43.200;27.920;2023-01-29T07:44:31;9.38;;;8.48;;
6941;SDS011;3510;43.200;27.920;2023-01-29T07:46:58;10.15;;;9.15;;
6941;SDS011;3510;43.200;27.920;2023-01-29T07:49:26;9.65;;;8.30;;
6941;SDS011;3510;43.200;27.920;2023-01-29T07:51:53;9.90;;;8.98;;
6941;SDS011;3510;43.200;27.920;2023-01-29T07:54:20;9.45;;;8.65;;
6941;SDS011;3510;43.200;27.920;2023-01-29T07:56:47;10.18;;;9.18;;
6941;SDS011;3510;43.200;27.920;2023-01-29T07:59:15;8.27;;;7.57;;
6941;SDS011;3510;43.200;27.920;2023-01-29T08:01:43;7.75;;;7.15;;
6941;SDS011;3510;43.200;27.920;2023-01-29T08:04:11;7.97;;;7.38;;
6941;SDS011;3510;43.200;27.920;2023-01-29T08:06:38;8.43;;;7.63;;
6941;SDS011;3510;43.200;27.920;2023-01-29T08:09:05;7.40;;;6.70;;
6941;SDS011;3510;43.200;27.920;2023-01-29T08:11:33;11.32;;;10.27;;
6941;SDS011;3510;43.200;27.920;2023-01-29T08:14:00;8.50;;;7.55;;
6941;SDS011;3510;43.200;27.920;2023-01-29T08:16:27;7.70;;;7.03;;
6941;SDS011;3510;43.200;27.920;2023-01-29T08:18:56;7.05;;;6.50;;
6941;SDS011;3510;43.200;27.920;2023-01-29T08:21:23;7.33;;;6.60;;
6941;SDS011;3510;43.200;27.920;2023-01-29T08:23:50;6.90;;;6.30;;
6941;SDS011;3510;43.200;27.920;2023-01-29T08:26:17;6.97;;;6.40;;
6941;SDS011;3510;43.200;27.920;2023-01-29T08:28:44;5.93;;;5.43;;
6941;SDS011;3510;43.200;27.920;2023-01-29T08:31:12;6.72;;;6.22;;
6941;SDS011;3510;43.200;27.920;2023-01-29T08:33:39;7.97;;;6.40;;
6941;SDS011;3510;43.200;27.920;2023-01-29T08:36:09;7.55;;;6.85;;
6941;SDS011;3510;43.200;27.920;2023-01-29T08:38:36;5.85;;;5.30;;
6941;SDS011;3510;43.200;27.920;2023-01-29T08:41:04;6.78;;;6.18;;
6941;SDS011;3510;43.200;27.920;2023-01-29T08:43:31;7.67;;;7.07;;
6941;SDS011;3510;43.200;27.920;2023-01-29T08:45:59;7.67;;;6.97;;
6941;SDS011;3510;43.200;27.920;2023-01-29T08:48:26;7.40;;;6.80;;
6941;SDS011;3510;43.200;27.920;2023-01-29T08:50:55;7.32;;;6.72;;
6941;SDS011;3510;43.200;27.920;2023-01-29T08:53:24;7.72;;;7.13;;
6941;SDS011;3510;43.200;27.920;2023-01-29T08:55:52;7.35;;;6.75;;
6941;SDS011;3510;43.200;27.920;2023-01-29T08:58:20;7.43;;;6.83;;
6941;SDS011;3510;43.200;27.920;2023-01-29T09:00:47;7.55;;;6.85;;
6941;SDS011;3510;43.200;27.920;2023-01-29T09:03:15;7.53;;;6.82;;
6941;SDS011;3510;43.200;27.920;2023-01-29T09:05:42;8.30;;;7.50;;
6941;SDS011;3510;43.200;27.920;2023-01-29T09:08:10;9.07;;;8.27;;
6941;SDS011;3510;43.200;27.920;2023-01-29T09:10:39;17.98;;;15.93;;
6941;SDS011;3510;43.200;27.920;2023-01-29T09:13:06;18.40;;;16.30;;
6941;SDS011;3510;43.200;27.920;2023-01-29T09:15:33;8.27;;;7.47;;
6941;SDS011;3510;43.200;27.920;2023-01-29T09:18:01;8.32;;;7.15;;
6941;SDS011;3510;43.200;27.920;2023-01-29T09:20:29;8.07;;;7.28;;
6941;SDS011;3510;43.200;27.920;2023-01-29T09:22:56;8.27;;;7.63;;
6941;SDS011;3510;43.200;27.920;2023-01-29T09:25:26;7.82;;;7.18;;
6941;SDS011;3510;43.200;27.920;2023-01-29T09:27:55;13.13;;;11.60;;
6941;SDS011;3510;43.200;27.920;2023-01-29T09:30:22;11.50;;;10.25;;
6941;SDS011;3510;43.200;27.920;2023-01-29T09:32:49;9.95;;;9.15;;
6941;SDS011;3510;43.200;27.920;2023-01-29T09:35:17;9.10;;;8.20;;
6941;SDS011;3510;43.200;27.920;2023-01-29T09:37:52;8.98;;;8.15;;
6941;SDS011;3510;43.200;27.920;2023-01-29T09:40:22;8.17;;;7.47;;
6941;SDS011;3510;43.200;27.920;2023-01-29T09:42:58;8.77;;;7.88;;
6941;SDS011;3510;43.200;27.920;2023-01-29T09:45:29;8.52;;;7.72;;
6941;SDS011;3510;43.200;27.920;2023-01-29T09:47:57;7.70;;;7.00;;
6941;SDS011;3510;43.200;27.920;2023-01-29T09:50:29;8.18;;;7.38;;
6941;SDS011;3510;43.200;27.920;2023-01-29T09:52:59;8.70;;;7.80;;
6941;SDS011;3510;43.200;27.920;2023-01-29T09:55:31;9.40;;;8.57;;
6941;SDS011;3510;43.200;27.920;2023-01-29T09:58:04;8.13;;;7.43;;
6941;SDS011;3510;43.200;27.920;2023-01-29T10:00:42;9.00;;;8.10;;
6941;SDS011;3510;43.200;27.920;2023-01-29T10:03:20;8.77;;;7.55;;
6941;SDS011;3510;43.200;27.920;2023-01-29T10:06:03;8.32;;;7.60;;
6941;SDS011;3510;43.200;27.920;2023-01-29T10:08:50;8.75;;;7.85;;
6941;SDS011;3510;43.200;27.920;2023-01-29T10:11:36;8.30;;;7.40;;
6941;SDS011;3510;43.200;27.920;2023-01-29T10:14:13;7.47;;;6.88;;
6941;SDS011;3510;43.200;27.920;2023-01-29T10:16:48;8.57;;;7.78;;
6941;SDS011;3510;43.200;27.920;2023-01-29T10:19:38;9.07;;;8.18;;
6941;SDS011;3510;43.200;27.920;2023-01-29T10:25:29;8.70;;;7.80;;
6941;SDS011;3510;43.200;27.920;2023-01-29T10:28:02;7.55;;;6.95;;
6941;SDS011;3510;43.200;27.920;2023-01-29T10:30:44;8.32;;;7.53;;
6941;SDS011;3510;43.200;27.920;2023-01-29T10:33:18;9.38;;;8.50;;
6941;SDS011;3510;43.200;27.920;2023-01-29T10:35:51;7.73;;;7.03;;
6941;SDS011;3510;43.200;27.920;2023-01-29T10:38:24;7.70;;;7.00;;
6941;SDS011;3510;43.200;27.920;2023-01-29T10:41:02;7.50;;;6.85;;
6941;SDS011;3510;43.200;27.920;2023-01-29T10:43:42;8.18;;;7.43;;
6941;SDS011;3510;43.200;27.920;2023-01-29T10:46:22;7.40;;;6.80;;
6941;SDS011;3510;43.200;27.920;2023-01-29T10:48:59;8.45;;;7.65;;
6941;SDS011;3510;43.200;27.920;2023-01-29T10:51:46;7.35;;;6.75;;
6941;SDS011;3510;43.200;27.920;2023-01-29T10:54:30;7.32;;;6.55;;
6941;SDS011;3510;43.200;27.920;2023-01-29T10:57:08;7.53;;;6.82;;
6941;SDS011;3510;43.200;27.920;2023-01-29T10:59:45;7.43;;;6.70;;
6941;SDS011;3510;43.200;27.920;2023-01-29T11:02:26;7.95;;;7.22;;
6941;SDS011;3510;43.200;27.920;2023-01-29T11:04:53;8.20;;;7.30;;
6941;SDS011;3510;43.200;27.920;2023-01-29T11:07:20;8.35;;;7.60;;
6941;SDS011;3510;43.200;27.920;2023-01-29T11:09:50;8.00;;;7.30;;
6941;SDS011;3510;43.200;27.920;2023-01-29T11:12:23;8.82;;;8.07;;
6941;SDS011;3510;43.200;27.920;2023-01-29T11:14:55;8.10;;;7.40;;
6941;SDS011;3510;43.200;27.920;2023-01-29T11:17:34;10.07;;;8.63;;
6941;SDS011;3510;43.200;27.920;2023-01-29T11:20:05;8.45;;;7.70;;
6941;SDS011;3510;43.200;27.920;2023-01-29T11:22:52;9.20;;;8.30;;
6941;SDS011;3510;43.200;27.920;2023-01-29T11:25:24;8.37;;;7.67;;
6941;SDS011;3510;43.200;27.920;2023-01-29T11:27:55;8.13;;;7.43;;
6941;SDS011;3510;43.200;27.920;2023-01-29T11:30:25;9.00;;;8.13;;
6941;SDS011;3510;43.200;27.920;2023-01-29T11:33:06;8.38;;;7.60;;
6941;SDS011;3510;43.200;27.920;2023-01-29T11:35:35;8.57;;;7.78;;
6941;SDS011;3510;43.200;27.920;2023-01-29T11:38:07;11.38;;;7.95;;
6941;SDS011;3510;43.200;27.920;2023-01-29T11:40:43;8.52;;;7.72;;
6941;SDS011;3510;43.200;27.920;2023-01-29T11:43:12;8.45;;;7.75;;
6941;SDS011;3510;43.200;27.920;2023-01-29T11:45:54;8.50;;;7.70;;
6941;SDS011;3510;43.200;27.920;2023-01-29T11:48:25;8.17;;;7.33;;
6941;SDS011;3510;43.200;27.920;2023-01-29T11:51:05;9.77;;;8.85;;
6941;SDS011;3510;43.200;27.920;2023-01-29T11:53:35;10.75;;;9.70;;
6941;SDS011;3510;43.200;27.920;2023-01-29T11:56:05;10.30;;;9.30;;
6941;SDS011;3510;43.200;27.920;2023-01-29T11:58:44;9.75;;;8.45;;
6941;SDS011;3510;43.200;27.920;2023-01-29T12:01:14;9.85;;;8.93;;
6941;SDS011;3510;43.200;27.920;2023-01-29T12:03:50;8.30;;;7.60;;
6941;SDS011;3510;43.200;27.920;2023-01-29T12:06:20;8.65;;;7.85;;
6941;SDS011;3510;43.200;27.920;2023-01-29T12:08:52;10.18;;;9.18;;
6941;SDS011;3510;43.200;27.920;2023-01-29T12:11:26;8.93;;;8.02;;
6941;SDS011;3510;43.200;27.920;2023-01-29T12:13:55;9.57;;;8.60;;
6941;SDS011;3510;43.200;27.920;2023-01-29T12:16:25;9.43;;;8.48;;
6941;SDS011;3510;43.200;27.920;2023-01-29T12:19:00;8.40;;;7.68;;
6941;SDS011;3510;43.200;27.920;2023-01-29T12:21:36;9.55;;;8.70;;
6941;SDS011;3510;43.200;27.920;2023-01-29T12:24:10;9.38;;;8.43;;
6941;SDS011;3510;43.200;27.920;2023-01-29T12:26:45;9.93;;;8.70;;
6941;SDS011;3510;43.200;27.920;2023-01-29T12:29:22;8.55;;;7.00;;
6941;SDS011;3510;43.200;27.920;2023-01-29T12:31:59;10.30;;;8.57;;
6941;SDS011;3510;43.200;27.920;2023-01-29T12:34:41;9.13;;;8.23;;
6941;SDS011;3510;43.200;27.920;2023-01-29T12:37:16;10.33;;;9.33;;
6941;SDS011;3510;43.200;27.920;2023-01-29T12:40:01;9.50;;;7.85;;
6941;SDS011;3510;43.200;27.920;2023-01-29T12:42:36;9.65;;;8.75;;
6941;SDS011;3510;43.200;27.920;2023-01-29T12:45:07;9.10;;;8.07;;
6941;SDS011;3510;43.200;27.920;2023-01-29T12:47:42;9.88;;;8.80;;
6941;SDS011;3510;43.200;27.920;2023-01-29T13:12:30;9.30;;;8.35;;
6941;SDS011;3510;43.200;27.920;2023-01-29T13:15:02;8.85;;;7.95;;
6941;SDS011;3510;43.200;27.920;2023-01-29T13:17:32;9.10;;;8.30;;
6941;SDS011;3510;43.200;27.920;2023-01-29T13:20:04;8.50;;;7.70;;
6941;SDS011;3510;43.200;27.920;2023-01-29T13:22:38;8.57;;;7.78;;
6941;SDS011;3510;43.200;27.920;2023-01-29T13:25:11;9.00;;;8.00;;
6941;SDS011;3510;43.200;27.920;2023-01-29T13:33:40;9.85;;;8.48;;
6941;SDS011;3510;43.200;27.920;2023-01-29T13:36:12;10.52;;;9.30;;
6941;SDS011;3510;43.200;27.920;2023-01-29T13:38:42;9.80;;;8.82;;
6941;SDS011;3510;43.200;27.920;2023-01-29T13:41:10;10.93;;;9.80;;
6941;SDS011;3510;43.200;27.920;2023-01-29T13:43:39;8.48;;;7.68;;
6941;SDS011;3510;43.200;27.920;2023-01-29T13:46:09;10.07;;;9.07;;
6941;SDS011;3510;43.200;27.920;2023-01-29T13:48:54;9.48;;;8.27;;
6941;SDS011;3510;43.200;27.920;2023-01-29T13:51:29;8.90;;;8.00;;
6941;SDS011;3510;43.200;27.920;2023-01-29T13:54:01;9.05;;;8.15;;
6941;SDS011;3510;43.200;27.920;2023-01-29T13:56:46;9.02;;;8.05;;
6941;SDS011;3510;43.200;27.920;2023-01-29T13:59:24;9.57;;;7.03;;
6941;SDS011;3510;43.200;27.920;2023-01-29T14:02:19;7.65;;;6.95;;
6941;SDS011;3510;43.200;27.920;2023-01-29T14:08:05;8.98;;;7.43;;
6941;SDS011;3510;43.200;27.920;2023-01-29T14:17:05;9.80;;;8.80;;
6941;SDS011;3510;43.200;27.920;2023-01-29T14:29:03;11.43;;;7.88;;
6941;SDS011;3510;43.200;27.920;2023-01-29T14:31:38;8.52;;;7.63;;
6941;SDS011;3510;43.200;27.920;2023-01-29T14:34:22;11.43;;;9.52;;
6941;SDS011;3510;43.200;27.920;2023-01-29T14:37:15;8.25;;;7.40;;
6941;SDS011;3510;43.200;27.920;2023-01-29T14:40:07;8.25;;;7.45;;
6941;SDS011;3510;43.200;27.920;2023-01-29T14:42:48;10.25;;;8.75;;
6941;SDS011;3510;43.200;27.920;2023-01-29T14:45:24;7.57;;;6.88;;
6941;SDS011;3510;43.200;27.920;2023-01-29T14:47:54;8.38;;;7.53;;
6941;SDS011;3510;43.200;27.920;2023-01-29T14:50:50;12.25;;;9.02;;
6941;SDS011;3510;43.200;27.920;2023-01-29T14:53:49;8.68;;;7.90;;
6941;SDS011;3510;43.200;27.920;2023-01-29T14:56:25;9.35;;;8.38;;
6941;SDS011;3510;43.200;27.920;2023-01-29T14:59:01;7.85;;;7.07;;
6941;SDS011;3510;43.200;27.920;2023-01-29T15:01:42;9.05;;;8.15;;
6941;SDS011;3510;43.200;27.920;2023-01-29T15:04:14;9.88;;;8.32;;
6941;SDS011;3510;43.200;27.920;2023-01-29T15:06:46;8.48;;;7.68;;
6941;SDS011;3510;43.200;27.920;2023-01-29T15:09:33;8.70;;;7.90;;
6941;SDS011;3510;43.200;27.920;2023-01-29T15:12:09;11.02;;;9.63;;
6941;SDS011;3510;43.200;27.920;2023-01-29T15:14:46;12.77;;;10.43;;
6941;SDS011;3510;43.200;27.920;2023-01-29T15:20:43;10.85;;;9.27;;
6941;SDS011;3510;43.200;27.920;2023-01-29T15:23:25;8.48;;;7.68;;
6941;SDS011;3510;43.200;27.920;2023-01-29T15:25:55;11.65;;;10.13;;
6941;SDS011;3510;43.200;27.920;2023-01-29T15:28:25;10.10;;;9.10;;
6941;SDS011;3510;43.200;27.920;2023-01-29T15:31:10;11.77;;;9.73;;
6941;SDS011;3510;43.200;27.920;2023-01-29T15:33:41;9.57;;;8.57;;
6941;SDS011;3510;43.200;27.920;2023-01-29T15:39:15;11.70;;;9.70;;
6941;SDS011;3510;43.200;27.920;2023-01-29T15:41:43;12.45;;;10.55;;
6941;SDS011;3510;43.200;27.920;2023-01-29T15:44:24;10.23;;;9.10;;
6941;SDS011;3510;43.200;27.920;2023-01-29T15:47:07;10.75;;;9.65;;
6941;SDS011;3510;43.200;27.920;2023-01-29T15:49:49;11.20;;;9.75;;
6941;SDS011;3510;43.200;27.920;2023-01-29T15:55:17;9.88;;;8.80;;
6941;SDS011;3510;43.200;27.920;2023-01-29T15:58:02;11.20;;;10.00;;
6941;SDS011;3510;43.200;27.920;2023-01-29T16:00:30;11.48;;;9.73;;
6941;SDS011;3510;43.200;27.920;2023-01-29T16:02:57;10.48;;;9.38;;
6941;SDS011;3510;43.200;27.920;2023-01-29T16:05:26;11.27;;;10.10;;
6941;SDS011;3510;43.200;27.920;2023-01-29T16:08:10;10.77;;;9.63;;
6941;SDS011;3510;43.200;27.920;2023-01-29T16:10:40;10.70;;;9.63;;
6941;SDS011;3510;43.200;27.920;2023-01-29T16:13:10;12.20;;;10.60;;
6941;SDS011;3510;43.200;27.920;2023-01-29T16:15:52;11.17;;;10.00;;
6941;SDS011;3510;43.200;27.920;2023-01-29T16:18:22;11.07;;;9.87;;
6941;SDS011;3510;43.200;27.920;2023-01-29T16:20:53;11.45;;;10.25;;
6941;SDS011;3510;43.200;27.920;2023-01-29T16:23:24;10.48;;;9.38;;
6941;SDS011;3510;43.200;27.920;2023-01-29T16:25:55;11.45;;;9.45;;
6941;SDS011;3510;43.200;27.920;2023-01-29T16:28:28;10.95;;;9.80;;
6941;SDS011;3510;43.200;27.920;2023-01-29T16:30:56;11.43;;;10.25;;
6941;SDS011;3510;43.200;27.920;2023-01-29T16:33:27;11.35;;;10.23;;
6941;SDS011;3510;43.200;27.920;2023-01-29T16:35:59;11.40;;;10.23;;
6941;SDS011;3510;43.200;27.920;2023-01-29T16:38:31;11.23;;;9.82;;
6941;SDS011;3510;43.200;27.920;2023-01-29T16:41:05;13.93;;;10.07;;
6941;SDS011;3510;43.200;27.920;2023-01-29T16:43:45;11.50;;;10.13;;
6941;SDS011;3510;43.200;27.920;2023-01-29T16:46:16;10.73;;;9.65;;
6941;SDS011;3510;43.200;27.920;2023-01-29T16:52:16;14.25;;;10.73;;
6941;SDS011;3510;43.200;27.920;2023-01-29T16:57:59;10.80;;;9.70;;
6941;SDS011;3510;43.200;27.920;2023-01-29T17:00:43;10.13;;;8.90;;
6941;SDS011;3510;43.200;27.920;2023-01-29T17:03:13;10.93;;;9.83;;